Time;durP1;ratioP1;P1;durP2;ratioP2;P2;SDS_P1;SDS_P2;PMS_P1;PMS_P2;Temp;Humidity;BMP_temperature;BMP_pressure;BME280_temperature;BME280_humidity;BME280_pressure;Samples;Min_cycle;Max_cycle;Signal;HPM_P1;HPM_P2
2023/08/16 00:00:52;;;;;;;;;;;;;;;28.87;41.95;100548.03;5049191;28;1024;-37
2023/08/16 00:03:17;;;;;;;;;;;;;;;28.79;41.33;100557.16;5074979;28;1922;-35
2023/08/16 00:05:43;;;;;;;;;;;;;;;28.72;41.80;100557.13;5077673;28;1039;-35
2023/08/16 00:08:08;;;;;;;;;;;;;;;28.81;41.12;100546.94;5077652;28;1036;-35
2023/08/16 00:10:34;;;;;;;;;;;;;;;28.85;41.30;100544.69;5063251;28;896;-35
2023/08/16 00:12:59;;;;;;;;;;;;;;;28.68;41.70;100539.59;5074370;28;1008;-34
2023/08/16 00:15:25;;;;;;;;;;;;;;;28.65;41.63;100536.44;5077869;28;1143;-35
2023/08/16 00:17:51;;;;;;;;;;;;;;;28.76;41.70;100524.22;5077227;28;1031;-34
2023/08/16 00:20:17;;;;;;;;;;;;;;;28.80;41.66;100511.94;5058877;28;2241;-35
2023/08/16 00:22:42;;;;;;;;;;;;;;;28.65;41.91;100512.91;5054715;28;1965;-35
2023/08/16 00:25:08;;;;;;;;;;;;;;;28.81;41.44;100516.34;5069078;28;1167;-35
2023/08/16 00:27:34;;;;;;;;;;;;;;;28.79;41.71;100515.72;5077132;28;1016;-35
2023/08/16 00:29:59;;;;;;;;;;;;;;;28.77;41.22;100520.47;5059551;28;1056;-35
2023/08/16 00:32:26;;;;;;;;;;;;;;;28.71;41.49;100511.31;5077067;28;1100;-35
2023/08/16 00:34:51;;;;;;;;;;;;;;;28.71;41.40;100506.69;5061808;28;836;-35
2023/08/16 00:37:17;;;;;;;;;;;;;;;28.67;41.88;100499.19;5074964;28;1056;-35
2023/08/16 00:39:43;;;;;;;;;;;;;;;28.73;41.54;100480.28;5077072;28;1031;-35
2023/08/16 00:42:10;;;;;;;;;;;;;;;28.68;41.62;100495.44;5059002;28;1139;-35
2023/08/16 00:44:35;;;;;;;;;;;;;;;28.64;42.09;100515.81;5076929;28;1995;-35
2023/08/16 00:47:01;;;;;;;;;;;;;;;28.69;42.14;100535.84;5060946;28;1048;-35
2023/08/16 00:49:28;;;;;;;;;;;;;;;28.71;41.75;100552.72;5049397;28;2571;-35
2023/08/16 00:51:54;;;;;;;;;;;;;;;28.63;41.98;100565.59;5075102;28;1064;-35
2023/08/16 00:54:19;;;;;;;;;;;;;;;28.70;41.93;100580.81;5059114;28;1108;-35
2023/08/16 00:56:45;;;;;;;;;;;;;;;28.66;41.92;100603.91;5040473;28;1159;-35
2023/08/16 00:59:10;;;;;;;;;;;;;;;28.61;41.89;100614.50;5048785;28;1154;-35
2023/08/16 01:01:38;;;;;;;;;;;;;;;28.61;41.86;100625.31;5058594;28;1111;-35
2023/08/16 01:04:03;;;;;;;;;;;;;;;28.55;42.27;100631.50;5058596;28;1894;-35
2023/08/16 01:06:29;;;;;;;;;;;;;;;28.50;41.83;100639.38;5076639;28;1206;-35
2023/08/16 01:08:54;;;;;;;;;;;;;;;28.58;41.88;100642.78;5048071;28;1210;-35
2023/08/16 01:11:32;;;;;;;;;;;;;;;28.59;41.69;100662.56;5038271;28;1028;-35
2023/08/16 01:13:58;;;;;;;;;;;;;;;28.69;41.58;100675.75;5050749;28;1096;-35
2023/08/16 01:16:24;;;;;;;;;;;;;;;28.60;42.13;100667.78;5057977;28;1127;-35
2023/08/16 01:18:50;;;;;;;;;;;;;;;28.55;41.89;100675.63;5046036;28;1031;-35
2023/08/16 01:21:15;;;;;;;;;;;;;;;28.60;41.89;100670.47;5065739;28;1809;-35
2023/08/16 01:24:04;;;;;;;;;;;;;;;28.52;42.02;100653.53;5039024;28;1902;-35
2023/08/16 01:26:29;;;;;;;;;;;;;;;28.48;42.27;100653.94;5047108;28;1225;-35
2023/08/16 01:28:56;;;;;;;;;;;;;;;28.55;42.06;100669.38;5075349;28;1070;-35
2023/08/16 01:31:21;;;;;;;;;;;;;;;28.54;41.97;100694.78;5058423;28;1032;-37
2023/08/16 01:33:47;;;;;;;;;;;;;;;28.62;41.47;100691.09;5055552;28;1103;-38
2023/08/16 01:36:12;;;;;;;;;;;;;;;28.63;41.50;100685.47;5064692;28;1106;-35
2023/08/16 01:38:38;;;;;;;;;;;;;;;28.56;41.65;100688.13;5058136;28;1135;-38
2023/08/16 01:41:06;;;;;;;;;;;;;;;28.72;41.25;100683.47;5058103;28;1096;-37
2023/08/16 01:43:32;;;;;;;;;;;;;;;28.79;41.00;100680.84;5057569;28;1905;-37
2023/08/16 01:45:58;;;;;;;;;;;;;;;28.62;41.80;100685.69;5054437;28;1062;-37
2023/08/16 01:48:23;;;;;;;;;;;;;;;28.62;41.40;100682.97;5023273;28;1108;-36
2023/08/16 01:50:49;;;;;;;;;;;;;;;28.63;41.43;100687.38;5072307;28;2814;-36
2023/08/16 01:53:15;;;;;;;;;;;;;;;28.56;41.22;100679.19;5076381;28;1159;-36
2023/08/16 01:55:40;;;;;;;;;;;;;;;28.63;41.50;100682.78;5075641;28;1039;-36
2023/08/16 01:58:06;;;;;;;;;;;;;;;28.70;41.31;100685.53;5055530;28;1091;-35
2023/08/16 02:00:31;;;;;;;;;;;;;;;28.63;41.38;100680.06;5076057;28;1092;-36
2023/08/16 02:02:57;;;;;;;;;;;;;;;28.65;41.56;100688.00;5075782;28;1975;-35
2023/08/16 02:05:23;;;;;;;;;;;;;;;28.64;41.46;100686.34;5042807;28;1175;-35
2023/08/16 02:07:48;;;;;;;;;;;;;;;28.50;41.79;100690.78;5067838;28;1037;-35
2023/08/16 02:10:14;;;;;;;;;;;;;;;28.59;41.46;100689.63;5044088;28;1128;-35
2023/08/16 02:12:39;;;;;;;;;;;;;;;28.60;41.57;100692.13;5070875;28;1120;-35
2023/08/16 02:15:05;;;;;;;;;;;;;;;28.66;40.82;100695.91;5057875;28;1135;-36
2023/08/16 02:17:31;;;;;;;;;;;;;;;28.60;41.17;100675.91;5057491;28;1075;-36
2023/08/16 02:19:56;;;;;;;;;;;;;;;28.56;40.90;100673.78;5052570;28;1825;-36
2023/08/16 02:22:23;;;;;;;;;;;;;;;28.58;41.05;100667.13;5066416;28;1965;-36
2023/08/16 02:24:48;;;;;;;;;;;;;;;28.61;41.02;100657.81;5064688;28;1091;-35
2023/08/16 02:27:14;;;;;;;;;;;;;;;28.61;41.11;100641.56;5079036;28;1159;-35
2023/08/16 02:29:39;;;;;;;;;;;;;;;28.76;40.98;100651.44;5079894;28;1125;-36
2023/08/16 02:32:05;;;;;;;;;;;;;;;28.78;40.57;100641.28;5061334;28;2268;-35
2023/08/16 02:34:30;;;;;;;;;;;;;;;28.74;40.58;100627.28;5074448;28;1103;-35
2023/08/16 02:36:56;;;;;;;;;;;;;;;28.68;41.12;100644.28;5061998;28;1052;-35
2023/08/16 02:39:22;;;;;;;;;;;;;;;28.67;41.15;100623.69;5079477;28;1008;-35
2023/08/16 02:41:48;;;;;;;;;;;;;;;28.64;40.96;100627.63;5079153;28;984;-35
2023/08/16 02:44:13;;;;;;;;;;;;;;;28.76;40.87;100621.69;5061499;28;1913;-37
2023/08/16 02:46:39;;;;;;;;;;;;;;;28.69;41.34;100611.66;5055804;28;1142;-37
2023/08/16 02:49:04;;;;;;;;;;;;;;;28.59;41.58;100620.09;5067831;28;1076;-37
2023/08/16 02:51:30;;;;;;;;;;;;;;;28.57;41.37;100629.44;5063323;28;2483;-37
2023/08/16 02:53:55;;;;;;;;;;;;;;;28.70;40.95;100632.25;5061486;28;1151;-37
2023/08/16 02:56:21;;;;;;;;;;;;;;;28.76;40.91;100632.50;5061077;28;1431;-36
2023/08/16 02:58:46;;;;;;;;;;;;;;;28.69;41.01;100618.91;5073345;28;1028;-36
2023/08/16 03:01:12;;;;;;;;;;;;;;;28.59;41.03;100613.84;5059626;28;1151;-36
2023/08/16 03:03:37;;;;;;;;;;;;;;;28.68;41.01;100628.06;5078863;28;1906;-34
2023/08/16 03:06:03;;;;;;;;;;;;;;;28.68;41.25;100638.88;5077997;28;1115;-34
2023/08/16 03:08:29;;;;;;;;;;;;;;;28.84;40.25;100668.38;5059082;28;1032;-35
2023/08/16 03:10:55;;;;;;;;;;;;;;;28.99;40.10;100681.03;5049032;28;1219;-35
2023/08/16 03:13:20;;;;;;;;;;;;;;;28.99;39.75;100682.88;5067033;28;1075;-35
2023/08/16 03:15:46;;;;;;;;;;;;;;;28.93;40.06;100689.88;5061221;28;1107;-34
2023/08/16 03:18:11;;;;;;;;;;;;;;;28.79;40.12;100680.84;5079149;28;1162;-34
2023/08/16 03:20:37;;;;;;;;;;;;;;;28.81;40.80;100682.28;5047614;28;2377;-36
2023/08/16 03:23:02;;;;;;;;;;;;;;;28.89;40.52;100684.03;5054569;28;1980;-36
2023/08/16 03:25:29;;;;;;;;;;;;;;;28.78;40.75;100685.41;5060210;28;1175;-36
2023/08/16 03:27:54;;;;;;;;;;;;;;;28.53;41.38;100676.88;5060797;28;1155;-36
2023/08/16 03:30:20;;;;;;;;;;;;;;;28.57;41.58;100672.75;5060064;28;1059;-37
2023/08/16 03:32:45;;;;;;;;;;;;;;;28.93;39.94;100663.66;5077932;28;1015;-36
2023/08/16 03:35:11;;;;;;;;;;;;;;;28.79;40.97;100672.72;5045060;28;1178;-37
2023/08/16 03:37:37;;;;;;;;;;;;;;;28.59;43.10;100674.22;5048115;28;1137;-36
2023/08/16 03:40:05;;;;;;;;;;;;;;;28.24;44.29;100674.09;5078452;28;1011;-37
2023/08/16 03:42:31;;;;;;;;;;;;;;;28.33;43.74;100667.53;5060281;28;1965;-37
2023/08/16 03:44:57;;;;;;;;;;;;;;;28.66;41.81;100671.56;5077875;28;1034;-36
2023/08/16 03:47:22;;;;;;;;;;;;;;;28.65;41.45;100671.75;5069301;28;981;-36
2023/08/16 03:49:48;;;;;;;;;;;;;;;28.64;41.14;100670.09;5039576;28;2673;-36
2023/08/16 03:52:15;;;;;;;;;;;;;;;28.85;41.82;100670.06;5048403;28;1609;-35
2023/08/16 03:54:40;;;;;;;;;;;;;;;28.72;41.10;100670.78;5077879;28;991;-35
2023/08/16 03:57:06;;;;;;;;;;;;;;;28.96;42.05;100660.53;5069269;28;1054;-35
2023/08/16 03:59:32;;;;;;;;;;;;;;;28.98;41.99;100657.66;5039784;28;1244;-36
2023/08/16 04:01:58;;;;;;;;;;;;;;;28.92;41.72;100650.31;5057688;28;1031;-38
2023/08/16 04:04:23;;;;;;;;;;;;;;;28.87;43.99;100640.06;5039729;28;1910;-35
2023/08/16 04:06:49;;;;;;;;;;;;;;;28.51;47.34;100638.34;5064687;28;1004;-38
2023/08/16 04:09:15;;;;;;;;;;;;;;;29.08;45.84;100631.06;5064217;28;1110;-36
2023/08/16 04:11:40;;;;;;;;;;;;;;;29.12;45.60;100633.38;5028316;28;1433;-35
2023/08/16 04:14:06;;;;;;;;;;;;;;;29.28;45.02;100630.34;5057608;28;1160;-37
2023/08/16 04:16:31;;;;;;;;;;;;;;;29.16;44.62;100624.66;5040337;28;1119;-35
2023/08/16 04:18:58;;;;;;;;;;;;;;;29.19;45.37;100631.56;5039586;28;1191;-34
2023/08/16 04:21:23;;;;;;;;;;;;;;;29.14;44.94;100623.19;5039697;28;2104;-38
2023/08/16 04:23:49;;;;;;;;;;;;;;;29.25;44.47;100625.31;5039431;28;1953;-35
2023/08/16 04:26:15;;;;;;;;;;;;;;;29.39;44.39;100628.94;5039703;28;1183;-37
2023/08/16 04:28:40;;;;;;;;;;;;;;;29.29;44.35;100653.69;5039412;28;2301;-38
2023/08/16 04:31:06;;;;;;;;;;;;;;;29.29;44.06;100671.81;5039483;28;1205;-36
2023/08/16 04:33:31;;;;;;;;;;;;;;;29.24;45.36;100691.38;5039283;28;1129;-33
2023/08/16 04:35:57;;;;;;;;;;;;;;;29.31;45.61;100702.25;5057309;28;1040;-33
2023/08/16 04:38:22;;;;;;;;;;;;;;;29.15;46.11;100708.81;5057374;28;1195;-37
2023/08/16 04:40:49;;;;;;;;;;;;;;;29.30;45.74;100714.13;5039342;28;1373;-33
2023/08/16 04:43:15;;;;;;;;;;;;;;;29.18;46.34;100705.69;5037697;28;2362;-35
2023/08/16 04:45:40;;;;;;;;;;;;;;;29.15;46.79;100708.81;5039628;28;1222;-36
2023/08/16 04:48:07;;;;;;;;;;;;;;;28.84;48.31;100695.44;5057395;28;1127;-35
2023/08/16 04:50:33;;;;;;;;;;;;;;;28.61;49.30;100676.75;5056448;28;1091;-35
2023/08/16 04:52:58;;;;;;;;;;;;;;;28.51;49.65;100665.41;5039948;28;1321;-35
2023/08/16 04:55:26;;;;;;;;;;;;;;;28.47;50.05;100659.53;5038848;28;1219;-37
2023/08/16 04:57:52;;;;;;;;;;;;;;;28.53;49.91;100671.47;5039431;28;1427;-37
2023/08/16 05:00:19;;;;;;;;;;;;;;;28.90;48.75;100682.16;5038835;28;1390;-38
2023/08/16 05:02:53;;;;;;;;;;;;;;;29.13;47.84;100686.53;5039130;28;1903;-37
2023/08/16 05:05:19;;;;;;;;;;;;;;;29.39;46.19;100693.13;5038926;28;1413;-40
2023/08/16 05:07:45;;;;;;;;;;;;;;;29.50;45.05;100706.13;5057254;28;1196;-36
2023/08/16 05:10:11;;;;;;;;;;;;;;;28.97;47.89;100699.31;5038880;28;1059;-37
2023/08/16 05:12:36;;;;;;;;;;;;;;;28.66;49.98;100695.91;5038753;28;1150;-35
2023/08/16 05:15:02;;;;;;;;;;;;;;;28.71;49.63;100698.06;5038952;28;1111;-36
2023/08/16 05:17:29;;;;;;;;;;;;;;;29.49;47.15;100699.03;5042086;28;1328;-34
2023/08/16 05:19:55;;;;;;;;;;;;;;;29.03;47.86;100703.13;5040166;28;1349;-36
2023/08/16 05:22:24;;;;;;;;;;;;;;;29.42;45.14;100704.41;5056651;28;1488;-40
2023/08/16 05:24:49;;;;;;;;;;;;;;;29.17;46.53;100720.28;5055936;28;1909;-38
2023/08/16 05:27:15;;;;;;;;;;;;;;;29.60;46.05;100708.47;5057094;28;1131;-37
2023/08/16 05:29:40;;;;;;;;;;;;;;;29.46;47.16;100702.97;5056299;28;1080;-36
2023/08/16 05:32:06;;;;;;;;;;;;;;;28.79;48.39;100699.78;5060899;28;1386;-38
2023/08/16 05:34:32;;;;;;;;;;;;;;;28.87;48.64;100690.66;5055384;28;1375;-37
2023/08/16 05:36:57;;;;;;;;;;;;;;;28.53;48.84;100680.41;5056400;28;890;-37
2023/08/16 05:39:23;;;;;;;;;;;;;;;28.88;48.02;100695.06;5056242;28;1148;-37
2023/08/16 05:41:48;;;;;;;;;;;;;;;29.06;47.27;100691.91;5056679;28;1135;-38
2023/08/16 05:44:14;;;;;;;;;;;;;;;29.09;47.03;100683.38;5063185;28;1906;-39
2023/08/16 05:46:39;;;;;;;;;;;;;;;28.91;47.60;100676.53;5061217;28;1328;-35
2023/08/16 05:49:05;;;;;;;;;;;;;;;29.04;46.57;100678.56;5055277;28;1159;-36
2023/08/16 05:51:33;;;;;;;;;;;;;;;28.83;46.02;100676.69;5056079;28;1035;-35
2023/08/16 05:53:59;;;;;;;;;;;;;;;29.10;46.18;100666.06;5055930;28;1047;-37
2023/08/16 05:56:24;;;;;;;;;;;;;;;29.27;45.50;100657.63;5055716;28;1040;-37
2023/08/16 05:58:50;;;;;;;;;;;;;;;29.19;45.16;100635.09;5055955;28;1175;-36
2023/08/16 06:01:15;;;;;;;;;;;;;;;29.08;45.27;100620.22;5055006;28;1155;-38
2023/08/16 06:03:41;;;;;;;;;;;;;;;29.04;45.93;100582.94;5055891;28;1963;-38
2023/08/16 06:06:06;;;;;;;;;;;;;;;29.37;42.12;100568.69;5055957;28;1503;-37
2023/08/16 06:08:32;;;;;;;;;;;;;;;29.43;42.16;100576.00;5056055;28;1534;-35
2023/08/16 06:10:57;;;;;;;;;;;;;;;29.21;42.55;100595.09;5058311;28;1099;-37
2023/08/16 06:13:23;;;;;;;;;;;;;;;29.13;42.45;100589.84;5073112;28;1603;-36
2023/08/16 06:15:48;;;;;;;;;;;;;;;28.79;41.95;100575.25;5069813;28;1068;-37
2023/08/16 06:18:14;;;;;;;;;;;;;;;28.76;43.17;100560.22;5056129;28;1496;-36
2023/08/16 06:20:40;;;;;;;;;;;;;;;29.20;39.75;100543.81;5063844;28;1180;-36
2023/08/16 06:23:05;;;;;;;;;;;;;;;29.17;39.99;100527.97;5067404;28;1967;-36
2023/08/16 06:25:31;;;;;;;;;;;;;;;29.24;40.75;100541.56;5061080;28;910;-36
2023/08/16 06:27:56;;;;;;;;;;;;;;;29.04;40.56;100559.41;5055557;28;1096;-35
2023/08/16 06:30:22;;;;;;;;;;;;;;;29.17;39.61;100582.16;5055430;28;1172;-34
2023/08/16 06:32:47;;;;;;;;;;;;;;;29.21;40.65;100591.56;5056207;28;1021;-37
2023/08/16 06:35:13;;;;;;;;;;;;;;;29.25;40.71;100602.81;5055291;28;1278;-35
2023/08/16 06:37:39;;;;;;;;;;;;;;;29.17;41.62;100604.66;5055104;28;896;-34
2023/08/16 06:40:05;;;;;;;;;;;;;;;29.34;40.53;100607.84;5068665;28;1175;-35
2023/08/16 06:42:31;;;;;;;;;;;;;;;29.25;39.78;100608.22;5056171;28;1016;-35
2023/08/16 06:44:57;;;;;;;;;;;;;;;29.22;40.07;100606.75;5055635;28;1057;-37
2023/08/16 06:47:22;;;;;;;;;;;;;;;29.07;41.21;100612.31;5072074;28;1350;-35
2023/08/16 06:49:48;;;;;;;;;;;;;;;29.27;40.40;100647.63;5055332;28;1421;-35
2023/08/16 06:52:13;;;;;;;;;;;;;;;29.15;41.31;100654.63;5066411;28;1116;-37
2023/08/16 06:54:40;;;;;;;;;;;;;;;29.05;41.18;100661.25;5065885;28;1405;-35
2023/08/16 06:57:05;;;;;;;;;;;;;;;28.97;40.33;100664.13;5054229;28;1415;-35
2023/08/16 06:59:31;;;;;;;;;;;;;;;28.87;39.88;100663.59;5055090;28;1470;-35
2023/08/16 07:01:57;;;;;;;;;;;;;;;28.90;39.83;100664.03;5055182;28;914;-35
2023/08/16 07:04:22;;;;;;;;;;;;;;;29.01;40.85;100670.81;5068076;28;1910;-36
2023/08/16 07:06:48;;;;;;;;;;;;;;;29.09;40.75;100677.97;5067900;28;1218;-34
2023/08/16 07:09:14;;;;;;;;;;;;;;;29.13;41.35;100700.06;5042982;28;1316;-36
2023/08/16 07:11:39;;;;;;;;;;;;;;;29.08;42.02;100706.91;5055580;28;1132;-36
2023/08/16 07:14:05;;;;;;;;;;;;;;;29.11;41.79;100702.97;5060478;28;1389;-34
2023/08/16 07:16:31;;;;;;;;;;;;;;;29.27;42.08;100695.56;5059094;28;1424;-36
2023/08/16 07:18:57;;;;;;;;;;;;;;;29.14;41.26;100696.31;5071824;28;1353;-35
2023/08/16 07:21:22;;;;;;;;;;;;;;;29.12;41.11;100692.97;5058862;28;1400;-35
2023/08/16 07:23:49;;;;;;;;;;;;;;;29.20;40.20;100701.78;5059086;28;1910;-34
2023/08/16 07:26:14;;;;;;;;;;;;;;;29.31;40.85;100702.25;5072353;28;1058;-36
2023/08/16 07:28:40;;;;;;;;;;;;;;;29.23;41.36;100697.00;5059955;28;1123;-36
2023/08/16 07:31:05;;;;;;;;;;;;;;;29.42;40.55;100690.88;5045041;28;1379;-36
2023/08/16 07:33:31;;;;;;;;;;;;;;;29.59;40.80;100701.41;5059098;28;1043;-35
2023/08/16 07:36:01;;;;;;;;;;;;;;;29.45;41.24;100714.00;5058732;28;1079;-37
2023/08/16 07:38:28;;;;;;;;;;;;;;;29.36;39.84;100709.78;5069756;28;973;-35
2023/08/16 07:40:54;;;;;;;;;;;;;;;29.12;40.63;100709.22;5060512;28;1043;-36
2023/08/16 07:43:19;;;;;;;;;;;;;;;29.11;39.78;100712.97;5058320;28;1902;-35
2023/08/16 07:45:45;;;;;;;;;;;;;;;29.26;40.35;100710.16;5058945;28;1071;-36
2023/08/16 07:48:10;;;;;;;;;;;;;;;29.26;39.78;100712.84;5076148;28;1277;-37
2023/08/16 07:50:36;;;;;;;;;;;;;;;29.53;40.25;100708.41;5046331;28;1064;-38
2023/08/16 07:53:02;;;;;;;;;;;;;;;29.46;41.06;100715.69;5071662;28;1370;-34
2023/08/16 07:55:31;;;;;;;;;;;;;;;29.29;39.45;100724.13;5072527;28;1100;-38
2023/08/16 07:57:57;;;;;;;;;;;;;;;29.24;41.95;100733.88;5067440;28;1074;-37
2023/08/16 08:00:23;;;;;;;;;;;;;;;29.57;41.08;100728.69;5070514;28;1106;-38
2023/08/16 08:02:48;;;;;;;;;;;;;;;29.59;40.83;100742.06;5058010;28;1898;-36
2023/08/16 08:05:15;;;;;;;;;;;;;;;29.38;42.30;100737.53;5063724;28;1043;-34
2023/08/16 08:07:40;;;;;;;;;;;;;;;28.99;38.83;100740.59;5065426;28;1135;-36
2023/08/16 08:10:06;;;;;;;;;;;;;;;29.40;38.93;100728.16;5065997;28;1040;-34
2023/08/16 08:12:32;;;;;;;;;;;;;;;29.18;40.45;100736.34;5062993;28;1198;-34
2023/08/16 08:14:58;;;;;;;;;;;;;;;29.36;40.12;100737.72;5063522;28;1104;-36
2023/08/16 08:17:23;;;;;;;;;;;;;;;29.37;41.17;100733.97;5078408;28;1379;-37
2023/08/16 08:19:49;;;;;;;;;;;;;;;29.30;40.38;100731.22;5077456;28;1321;-35
2023/08/16 08:22:14;;;;;;;;;;;;;;;29.21;40.14;100735.94;5077153;28;1103;-37
2023/08/16 08:24:40;;;;;;;;;;;;;;;29.34;40.06;100726.25;5069034;28;1986;-37
2023/08/16 08:27:05;;;;;;;;;;;;;;;29.19;42.57;100735.34;5065253;28;1143;-36
2023/08/16 08:29:31;;;;;;;;;;;;;;;29.00;40.30;100731.44;5056896;28;2442;-37
2023/08/16 08:31:56;;;;;;;;;;;;;;;29.13;40.88;100733.38;5061586;28;2272;-36
2023/08/16 08:34:24;;;;;;;;;;;;;;;29.01;39.93;100727.66;5057097;28;1869;-36
2023/08/16 08:36:49;;;;;;;;;;;;;;;28.74;39.64;100735.56;5056576;28;2103;-36
2023/08/16 08:39:18;;;;;;;;;;;;;;;28.79;40.09;100735.81;5057958;28;1827;-36
2023/08/16 08:41:45;;;;;;;;;;;;;;;28.66;39.03;100725.69;5057249;28;2197;-36
2023/08/16 08:44:11;;;;;;;;;;;;;;;28.70;39.82;100721.56;5056705;28;1971;-36
2023/08/16 08:46:36;;;;;;;;;;;;;;;28.68;40.32;100720.94;5057066;28;1068;-36
2023/08/16 08:49:02;;;;;;;;;;;;;;;28.77;39.26;100721.63;5055973;28;1204;-36
2023/08/16 08:51:28;;;;;;;;;;;;;;;28.73;39.06;100706.81;5039558;28;1097;-36
2023/08/16 08:53:54;;;;;;;;;;;;;;;28.58;39.38;100712.28;5076014;28;1111;-36
2023/08/16 08:56:19;;;;;;;;;;;;;;;28.70;39.46;100715.31;5075774;28;1269;-36
2023/08/16 08:58:45;;;;;;;;;;;;;;;28.57;40.51;100714.19;5076847;28;1182;-36
2023/08/16 09:01:11;;;;;;;;;;;;;;;28.34;40.70;100706.25;5075490;28;1217;-36
2023/08/16 09:03:36;;;;;;;;;;;;;;;28.82;41.60;100702.09;5059026;28;1965;-37
2023/08/16 09:06:03;;;;;;;;;;;;;;;28.98;39.11;100698.28;5045884;28;1043;-36
2023/08/16 09:08:29;;;;;;;;;;;;;;;29.13;38.04;100703.59;5069282;28;1070;-37
2023/08/16 09:10:55;;;;;;;;;;;;;;;29.16;38.08;100689.66;5039193;28;1076;-37
2023/08/16 09:13:20;;;;;;;;;;;;;;;29.37;38.96;100676.22;5056442;28;1120;-36
2023/08/16 09:15:46;;;;;;;;;;;;;;;29.65;38.32;100694.31;5039280;28;1199;-36
2023/08/16 09:18:12;;;;;;;;;;;;;;;29.53;38.38;100691.34;5070813;28;1381;-35
2023/08/16 09:20:38;;;;;;;;;;;;;;;29.40;38.75;100687.50;5077095;28;1368;-35
2023/08/16 09:23:03;;;;;;;;;;;;;;;29.54;37.99;100693.00;5076589;28;1918;-35
2023/08/16 09:25:29;;;;;;;;;;;;;;;29.51;38.00;100679.84;5068747;28;1151;-36
2023/08/16 09:27:55;;;;;;;;;;;;;;;29.50;39.02;100681.72;5070802;28;1289;-36
2023/08/16 09:30:20;;;;;;;;;;;;;;;29.56;37.31;100686.31;5069066;28;1214;-37
2023/08/16 09:32:46;;;;;;;;;;;;;;;29.65;36.80;100688.91;5071238;28;1231;-37
2023/08/16 09:35:12;;;;;;;;;;;;;;;29.34;38.80;100686.41;5075708;28;1356;-36
2023/08/16 09:37:38;;;;;;;;;;;;;;;29.54;37.81;100682.16;5062832;28;1064;-35
2023/08/16 09:40:06;;;;;;;;;;;;;;;29.23;38.19;100695.13;5076422;28;1380;-37
2023/08/16 09:42:32;;;;;;;;;;;;;;;29.54;38.01;100699.25;5075853;28;1309;-35
2023/08/16 09:44:57;;;;;;;;;;;;;;;29.52;38.70;100695.91;5049498;28;1902;-37
2023/08/16 09:47:25;;;;;;;;;;;;;;;29.62;38.58;100692.00;5056377;28;1115;-37
2023/08/16 09:49:51;;;;;;;;;;;;;;;29.54;38.26;100693.00;5055739;28;1097;-36
2023/08/16 09:52:17;;;;;;;;;;;;;;;29.46;38.56;100702.97;5056319;28;1115;-35
2023/08/16 09:54:42;;;;;;;;;;;;;;;29.50;38.80;100700.69;5056255;28;1403;-37
2023/08/16 09:57:08;;;;;;;;;;;;;;;29.32;39.44;100715.63;5055774;28;1104;-35
2023/08/16 09:59:33;;;;;;;;;;;;;;;29.43;38.90;100719.63;5038692;28;1195;-38
2023/08/16 10:01:59;;;;;;;;;;;;;;;29.42;38.29;100717.97;5038689;28;1104;-37
2023/08/16 10:04:24;;;;;;;;;;;;;;;29.57;39.64;100714.28;5055878;28;1963;-34
2023/08/16 10:06:50;;;;;;;;;;;;;;;29.79;38.71;100742.16;5056728;28;1118;-38
2023/08/16 10:09:15;;;;;;;;;;;;;;;29.76;39.99;100731.69;5056412;28;1063;-38
2023/08/16 10:11:41;;;;;;;;;;;;;;;29.29;40.08;100726.84;5055999;28;1071;-38
2023/08/16 10:14:07;;;;;;;;;;;;;;;29.26;39.38;100727.22;5038137;28;1048;-38
2023/08/16 10:16:33;;;;;;;;;;;;;;;29.24;38.48;100723.03;5038255;28;1014;-38
2023/08/16 10:19:00;;;;;;;;;;;;;;;29.13;40.03;100719.84;5037956;28;1356;-38
2023/08/16 10:21:25;;;;;;;;;;;;;;;29.33;39.72;100716.44;5038452;28;1068;-37
2023/08/16 10:23:51;;;;;;;;;;;;;;;29.23;39.97;100713.25;5037986;28;1975;-37
2023/08/16 10:26:17;;;;;;;;;;;;;;;29.09;39.64;100715.88;5039106;28;1032;-37
2023/08/16 10:28:44;;;;;;;;;;;;;;;29.04;39.56;100713.75;5038442;28;1168;-37
2023/08/16 10:31:09;;;;;;;;;;;;;;;29.20;40.43;100723.44;5055608;28;1063;-37
2023/08/16 10:33:39;;;;;;;;;;;;;;;29.19;38.83;100721.78;5055700;28;1092;-37
2023/08/16 10:36:05;;;;;;;;;;;;;;;29.69;38.37;100723.56;5074114;28;1254;-36
2023/08/16 10:38:34;;;;;;;;;;;;;;;30.20;37.44;100728.75;5068066;28;1162;-36
2023/08/16 10:40:59;;;;;;;;;;;;;;;29.67;39.99;100725.63;5068031;28;1317;-38
2023/08/16 10:43:32;;;;;;;;;;;;;;;29.64;39.30;100728.75;5059454;28;1985;-37
2023/08/16 10:45:57;;;;;;;;;;;;;;;29.65;40.04;100726.84;5068796;28;1439;-36
2023/08/16 10:48:23;;;;;;;;;;;;;;;29.87;39.99;100732.16;5039483;28;1103;-35
2023/08/16 10:50:57;;;;;;;;;;;;;;;30.06;38.60;100725.16;5062549;28;1155;-35
2023/08/16 10:53:23;;;;;;;;;;;;;;;29.94;38.92;100725.75;5078836;28;1242;-36
2023/08/16 10:55:58;;;;;;;;;;;;;;;30.00;38.41;100740.34;5059270;28;1039;-35
2023/08/16 10:58:23;;;;;;;;;;;;;;;29.85;39.05;100726.94;5059292;28;1233;-35
2023/08/16 11:00:58;;;;;;;;;;;;;;;30.10;38.78;100739.97;5062737;28;1179;-36
2023/08/16 11:03:31;;;;;;;;;;;;;;;30.22;38.98;100729.41;5068069;28;1902;-35
2023/08/16 11:05:57;;;;;;;;;;;;;;;29.97;39.63;100731.78;5078648;28;1400;-36
2023/08/16 11:08:23;;;;;;;;;;;;;;;29.93;39.08;100742.19;5062394;28;1040;-36
2023/08/16 11:10:48;;;;;;;;;;;;;;;29.95;38.07;100731.97;5041558;28;1261;-37
2023/08/16 11:13:14;;;;;;;;;;;;;;;29.61;39.57;100726.44;5059077;28;1036;-35
2023/08/16 11:15:40;;;;;;;;;;;;;;;29.82;38.57;100713.78;5058850;28;938;-36
2023/08/16 11:18:06;;;;;;;;;;;;;;;29.77;38.65;100724.41;5059006;28;1060;-37
2023/08/16 11:20:31;;;;;;;;;;;;;;;29.94;39.57;100728.47;5068551;28;1313;-36
2023/08/16 11:23:00;;;;;;;;;;;;;;;29.88;40.20;100731.97;5078587;28;1973;-35
2023/08/16 11:25:34;;;;;;;;;;;;;;;29.93;38.96;100732.19;5067057;28;1059;-36
2023/08/16 11:28:05;;;;;;;;;;;;;;;27.06;46.94;100721.59;5058506;28;1040;-34
2023/08/16 11:30:34;;;;;;;;;;;;;;;24.38;49.96;100728.84;5060231;28;1184;-33
2023/08/16 11:32:59;;;;;;;;;;;;;;;23.46;53.35;100713.19;5070515;28;1163;-34
2023/08/16 11:35:25;;;;;;;;;;;;;;;23.56;54.36;100714.91;5059044;28;1208;-33
2023/08/16 11:37:51;;;;;;;;;;;;;;;23.42;54.64;100702.94;5058404;28;981;-35
2023/08/16 11:40:22;;;;;;;;;;;;;;;23.35;55.44;100697.31;5058366;28;854;-34
2023/08/16 11:42:53;;;;;;;;;;;;;;;23.22;55.56;100687.03;5058874;28;1906;-35
2023/08/16 11:45:19;;;;;;;;;;;;;;;23.15;56.07;100672.53;5058517;28;1052;-34
2023/08/16 11:47:48;;;;;;;;;;;;;;;22.93;56.66;100674.72;5068323;28;1341;-35
2023/08/16 11:50:13;;;;;;;;;;;;;;;22.85;57.02;100670.16;5061579;28;1087;-34
2023/08/16 11:52:39;;;;;;;;;;;;;;;22.74;57.19;100680.13;5040342;28;921;-33
2023/08/16 11:55:05;;;;;;;;;;;;;;;22.68;57.79;100682.59;5058363;28;1150;-33
2023/08/16 11:57:31;;;;;;;;;;;;;;;22.59;57.88;100679.81;5058048;28;1230;-33
2023/08/16 11:59:57;;;;;;;;;;;;;;;22.57;57.81;100676.44;5061105;28;1142;-40
2023/08/16 12:02:23;;;;;;;;;;;;;;;22.50;58.08;100664.66;5075304;28;1336;-41
2023/08/16 12:04:49;;;;;;;;;;;;;;;22.49;58.04;100666.47;5070051;28;1918;-41
2023/08/16 12:07:15;;;;;;;;;;;;;;;22.45;58.60;100664.28;5059533;28;1044;-41
2023/08/16 12:09:40;;;;;;;;;;;;;;;22.41;58.59;100653.00;5059594;28;1102;-42
2023/08/16 12:12:06;;;;;;;;;;;;;;;22.39;58.73;100649.63;5073963;28;1147;-41
2023/08/16 12:14:32;;;;;;;;;;;;;;;22.29;58.71;100665.78;5069564;28;1124;-41
2023/08/16 12:16:58;;;;;;;;;;;;;;;22.25;59.04;100669.78;5073226;28;1290;-30
2023/08/16 12:19:23;;;;;;;;;;;;;;;22.30;58.61;100680.88;5050992;28;1083;-40
2023/08/16 12:21:50;;;;;;;;;;;;;;;22.25;58.77;100669.78;5074625;28;1278;-41
2023/08/16 12:24:15;;;;;;;;;;;;;;;22.27;58.94;100673.16;5078239;28;1909;-40
2023/08/16 12:26:41;;;;;;;;;;;;;;;22.26;58.50;100685.69;5073435;28;1153;-39
2023/08/16 12:29:06;;;;;;;;;;;;;;;22.32;58.63;100684.25;5057803;28;1132;-41
2023/08/16 12:31:32;;;;;;;;;;;;;;;22.27;58.77;100681.19;5057565;28;1112;-42
2023/08/16 12:33:57;;;;;;;;;;;;;;;22.39;58.55;100690.69;5057650;28;1106;-41
2023/08/16 12:36:23;;;;;;;;;;;;;;;22.32;58.80;100688.78;5073366;28;1111;-39
2023/08/16 12:38:48;;;;;;;;;;;;;;;22.36;58.60;100687.47;5067939;28;1229;-42
2023/08/16 12:41:14;;;;;;;;;;;;;;;22.43;58.03;100693.06;5057600;28;1151;-41